Weather at Young Airport

Public forecast

Using degrees Celsius for public forecast. Weather courtesy of forecast.io.

Closest aviation weather report (METAR) to Young Airport

Closest report is Canberra International Airport, 78.5 nm (145.4 km) SE.

2022/11/28 14:30 (retrieved 36 minutes ago)

YSCB 281430Z AUTO 35008KT 250V360 9999 // SCT051 12/05 Q1010

Closest aviation forecast (TAF) to Young Airport

Closest forecast is Canberra International Airport, 78.5 nm (145.4 km) SE.

2022/11/28 15:37 (retrieved 0 seconds ago)

TAF YSCB 281404Z 2815/2912 32008KT CAVOK FM290200 34010KT CAVOK FM290800 10014KT 9999 SCT020 BECMG 2910/2912 09011KT 9999 BKN010